Time;durP1;ratioP1;P1;durP2;ratioP2;P2;SDS_P1;SDS_P2;PMS_P1;PMS_P2;Temp;Humidity;BMP_temperature;BMP_pressure;BME280_temperature;BME280_humidity;BME280_pressure;Samples;Min_cycle;Max_cycle;Signal;HPM_P1;HPM_P2
2022/06/18 00:00:40;;;;;;;11.77;2.67;;;;;;;;;;5135987;27;20106;-55
2022/06/18 00:03:05;;;;;;;6.03;2.15;;;;;;;;;;5137404;27;20616;-56
2022/06/18 00:05:33;;;;;;;6.65;3.28;;;;;;;;;;5137434;27;20050;-56
2022/06/18 00:07:58;;;;;;;8.48;2.67;;;;;;;;;;5134734;27;20102;-55
2022/06/18 00:10:25;;;;;;;5.00;3.20;;;;;;;;;;5136836;27;20035;-55
2022/06/18 00:15:36;;;;;;;7.22;3.03;;;;;;;;;;5139458;27;20111;-54
2022/06/18 00:18:01;;;;;;;14.30;4.03;;;;;;;;;;5134582;27;20077;-55
2022/06/18 00:20:28;;;;;;;33.22;4.18;;;;;;;;;;5140822;27;20034;-53
2022/06/18 00:22:55;;;;;;;5.43;2.65;;;;;;;;;;5137410;27;20441;-54
2022/06/18 00:25:22;;;;;;;6.55;3.80;;;;;;;;;;5136265;27;20126;-55
2022/06/18 00:27:47;;;;;;;7.35;3.67;;;;;;;;;;5139695;27;20035;-53
2022/06/18 00:30:18;;;;;;;4.20;2.53;;;;;;;;;;5141494;27;20061;-54
2022/06/18 00:32:44;;;;;;;7.07;3.13;;;;;;;;;;5141382;27;20043;-54
2022/06/18 00:35:09;;;;;;;4.57;2.60;;;;;;;;;;5142369;27;20058;-55
2022/06/18 00:37:34;;;;;;;4.25;3.05;;;;;;;;;;5142328;27;20058;-55
2022/06/18 00:40:00;;;;;;;9.93;2.75;;;;;;;;;;5139422;27;20042;-54
2022/06/18 00:42:28;;;;;;;5.45;2.42;;;;;;;;;;5140163;27;20053;-55
2022/06/18 00:44:55;;;;;;;5.78;2.47;;;;;;;;;;5135703;27;20134;-55
2022/06/18 00:47:36;;;;;;;25.52;3.72;;;;;;;;;;5138210;27;20174;-55
2022/06/18 00:50:23;;;;;;;9.10;3.78;;;;;;;;;;5135894;27;20047;-54
2022/06/18 00:52:53;;;;;;;7.93;3.13;;;;;;;;;;5137404;27;20122;-55
2022/06/18 00:55:31;;;;;;;5.95;3.67;;;;;;;;;;5139545;27;20125;-54
2022/06/18 00:58:02;;;;;;;14.70;3.28;;;;;;;;;;5135496;27;20066;-56
2022/06/18 01:00:32;;;;;;;5.38;3.17;;;;;;;;;;5135508;27;20591;-54
2022/06/18 01:02:57;;;;;;;12.05;3.35;;;;;;;;;;5139541;27;20050;-55
2022/06/18 01:05:24;;;;;;;7.38;3.03;;;;;;;;;;5137716;27;20053;-55
2022/06/18 01:08:00;;;;;;;8.13;2.67;;;;;;;;;;5136220;27;20502;-54
2022/06/18 01:10:31;;;;;;;4.80;2.80;;;;;;;;;;5133640;27;20054;-55
2022/06/18 01:12:57;;;;;;;6.18;3.13;;;;;;;;;;5135291;27;20047;-56
2022/06/18 01:15:23;;;;;;;6.95;3.42;;;;;;;;;;5138144;27;20069;-55
2022/06/18 01:17:51;;;;;;;5.55;3.33;;;;;;;;;;5139860;27;20043;-56
2022/06/18 01:20:18;;;;;;;5.07;3.45;;;;;;;;;;5135459;27;20066;-54
2022/06/18 01:22:58;;;;;;;13.75;3.63;;;;;;;;;;5138466;27;20042;-55
2022/06/18 01:25:25;;;;;;;6.72;3.25;;;;;;;;;;5139457;27;20086;-56
2022/06/18 01:27:51;;;;;;;7.63;3.00;;;;;;;;;;5135086;27;20047;-57
2022/06/18 01:30:18;;;;;;;5.47;2.58;;;;;;;;;;5134486;27;20634;-54
2022/06/18 01:32:45;;;;;;;7.47;3.63;;;;;;;;;;5135030;27;20054;-54
2022/06/18 01:35:10;;;;;;;5.53;3.55;;;;;;;;;;5136737;27;20043;-55
2022/06/18 01:37:36;;;;;;;11.73;3.90;;;;;;;;;;5140973;27;20073;-55
2022/06/18 01:40:02;;;;;;;8.80;4.22;;;;;;;;;;5137362;27;20161;-54
2022/06/18 01:42:40;;;;;;;6.68;3.78;;;;;;;;;;5134075;27;20084;-56
2022/06/18 01:45:10;;;;;;;4.85;2.75;;;;;;;;;;5139357;27;20135;-54
2022/06/18 01:47:42;;;;;;;8.48;3.08;;;;;;;;;;5135882;27;20035;-51
2022/06/18 01:50:12;;;;;;;7.22;3.05;;;;;;;;;;5138305;27;20083;-55
2022/06/18 01:52:39;;;;;;;6.70;3.42;;;;;;;;;;5139350;27;20038;-53
2022/06/18 01:55:17;;;;;;;9.38;3.13;;;;;;;;;;5138017;27;20042;-54
2022/06/18 01:57:48;;;;;;;11.73;3.92;;;;;;;;;;5134322;27;20058;-55
2022/06/18 02:00:16;;;;;;;6.22;4.13;;;;;;;;;;5134472;27;20098;-54
2022/06/18 02:02:42;;;;;;;13.07;5.93;;;;;;;;;;5136320;27;20050;-54
2022/06/18 02:05:08;;;;;;;13.13;3.33;;;;;;;;;;5133604;27;20099;-55
2022/06/18 02:07:34;;;;;;;25.88;4.90;;;;;;;;;;5137270;27;20073;-53
2022/06/18 02:10:08;;;;;;;14.38;3.42;;;;;;;;;;5134178;27;20042;-55
2022/06/18 02:12:36;;;;;;;4.22;2.95;;;;;;;;;;5136387;27;20047;-53
2022/06/18 02:15:06;;;;;;;7.18;3.25;;;;;;;;;;5135760;27;20039;-55
2022/06/18 02:17:32;;;;;;;9.77;4.35;;;;;;;;;;5137168;27;20118;-53
2022/06/18 02:20:10;;;;;;;7.38;3.38;;;;;;;;;;5133246;27;20549;-55
2022/06/18 02:22:44;;;;;;;23.60;4.88;;;;;;;;;;5135603;27;20054;-54
2022/06/18 02:25:10;;;;;;;8.32;3.33;;;;;;;;;;5134893;27;20043;-55
2022/06/18 02:27:36;;;;;;;6.97;3.10;;;;;;;;;;5136194;27;20043;-55
2022/06/18 02:30:02;;;;;;;6.13;2.88;;;;;;;;;;5137742;27;20046;-55
2022/06/18 02:32:48;;;;;;;10.07;3.33;;;;;;;;;;5139855;27;20043;-53
2022/06/18 02:35:14;;;;;;;6.93;3.22;;;;;;;;;;5137403;27;20055;-55
2022/06/18 02:37:39;;;;;;;5.15;3.53;;;;;;;;;;5132119;27;20039;-55
2022/06/18 02:40:13;;;;;;;5.68;3.47;;;;;;;;;;5136705;27;20050;-55
2022/06/18 02:42:39;;;;;;;9.85;3.55;;;;;;;;;;5135907;27;20474;-55
2022/06/18 02:45:05;;;;;;;10.60;2.65;;;;;;;;;;5138222;27;20118;-55
2022/06/18 02:47:30;;;;;;;9.73;3.75;;;;;;;;;;5137169;27;20049;-54
2022/06/18 02:50:04;;;;;;;6.80;3.80;;;;;;;;;;5135558;27;20504;-55
2022/06/18 02:52:32;;;;;;;18.63;4.00;;;;;;;;;;5135979;27;20050;-54
2022/06/18 02:55:08;;;;;;;6.28;3.42;;;;;;;;;;5137344;27;20073;-55
2022/06/18 02:57:34;;;;;;;3.20;2.67;;;;;;;;;;5134484;27;20043;-55
2022/06/18 02:59:59;;;;;;;4.68;3.85;;;;;;;;;;5138213;27;20116;-54
2022/06/18 03:02:24;;;;;;;7.82;3.53;;;;;;;;;;5141414;27;20043;-56
2022/06/18 03:04:50;;;;;;;10.68;2.97;;;;;;;;;;5136297;27;20151;-54
2022/06/18 03:07:15;;;;;;;4.85;2.22;;;;;;;;;;5137695;27;20459;-56
2022/06/18 03:12:25;;;;;;;12.18;5.00;;;;;;;;;;5140560;27;20037;-55
2022/06/18 03:14:50;;;;;;;9.70;3.17;;;;;;;;;;5137658;27;20047;-55
2022/06/18 03:17:15;;;;;;;4.93;3.47;;;;;;;;;;5137038;27;20509;-55
2022/06/18 03:19:44;;;;;;;5.95;2.53;;;;;;;;;;5135545;27;20434;-55
2022/06/18 03:22:12;;;;;;;8.50;4.32;;;;;;;;;;5137961;27;20061;-55
2022/06/18 03:24:40;;;;;;;8.60;3.63;;;;;;;;;;5138186;27;20047;-55
2022/06/18 03:27:06;;;;;;;9.32;4.15;;;;;;;;;;5136096;27;20486;-55
2022/06/18 03:29:31;;;;;;;4.53;2.50;;;;;;;;;;5136112;27;20065;-54
2022/06/18 03:31:56;;;;;;;9.70;2.53;;;;;;;;;;5139392;27;20065;-54
2022/06/18 03:34:22;;;;;;;13.40;3.75;;;;;;;;;;5137261;27;20133;-54
2022/06/18 03:36:47;;;;;;;13.25;3.88;;;;;;;;;;5138316;27;20081;-55
2022/06/18 03:39:12;;;;;;;17.60;4.80;;;;;;;;;;5140491;27;20073;-55
2022/06/18 03:41:38;;;;;;;7.22;3.92;;;;;;;;;;5136622;27;20053;-55
2022/06/18 03:44:03;;;;;;;13.73;3.45;;;;;;;;;;5137115;27;20520;-54
2022/06/18 03:46:29;;;;;;;11.52;4.18;;;;;;;;;;5141456;27;20515;-55
2022/06/18 03:48:59;;;;;;;7.93;3.53;;;;;;;;;;5136999;27;20533;-55
2022/06/18 03:51:25;;;;;;;5.40;2.00;;;;;;;;;;5139348;27;20095;-54
2022/06/18 03:53:50;;;;;;;5.85;3.72;;;;;;;;;;5137182;27;20063;-54
2022/06/18 03:56:17;;;;;;;10.90;3.55;;;;;;;;;;5139370;27;20042;-53
2022/06/18 03:58:43;;;;;;;6.53;2.70;;;;;;;;;;5140932;27;20077;-54
2022/06/18 04:01:10;;;;;;;6.05;3.25;;;;;;;;;;5137940;27;20477;-55
2022/06/18 04:03:35;;;;;;;15.43;4.38;;;;;;;;;;5136819;27;20054;-55
2022/06/18 04:06:00;;;;;;;12.90;2.75;;;;;;;;;;5137168;27;20053;-56
2022/06/18 04:08:26;;;;;;;11.82;3.90;;;;;;;;;;5137780;27;20047;-55
2022/06/18 04:10:51;;;;;;;13.00;3.75;;;;;;;;;;5139545;27;20039;-54
2022/06/18 04:13:17;;;;;;;7.47;3.50;;;;;;;;;;5138508;27;20035;-55
2022/06/18 04:15:42;;;;;;;6.70;3.75;;;;;;;;;;5140648;27;20092;-55
2022/06/18 04:18:08;;;;;;;8.60;2.70;;;;;;;;;;5142898;27;20603;-54
2022/06/18 04:20:35;;;;;;;11.55;4.57;;;;;;;;;;5139703;27;20145;-57
2022/06/18 04:23:01;;;;;;;5.10;3.40;;;;;;;;;;5139922;27;20043;-56
2022/06/18 04:25:27;;;;;;;10.18;3.50;;;;;;;;;;5139103;27;20073;-55
2022/06/18 04:27:56;;;;;;;11.60;3.83;;;;;;;;;;5142007;27;20075;-55
2022/06/18 04:30:22;;;;;;;16.80;3.92;;;;;;;;;;5141764;27;20077;-55
2022/06/18 04:32:47;;;;;;;22.33;4.63;;;;;;;;;;5140257;27;20394;-55
2022/06/18 04:35:13;;;;;;;10.38;4.57;;;;;;;;;;5139881;27;20593;-54
2022/06/18 04:37:40;;;;;;;9.07;3.85;;;;;;;;;;5139107;27;20592;-55
2022/06/18 04:40:06;;;;;;;15.60;3.90;;;;;;;;;;5137567;27;20066;-55
2022/06/18 04:42:31;;;;;;;10.13;4.25;;;;;;;;;;5138533;27;20081;-54
2022/06/18 04:44:57;;;;;;;16.35;6.60;;;;;;;;;;5138366;27;20417;-55
2022/06/18 04:47:22;;;;;;;19.13;5.13;;;;;;;;;;5120804;27;20390;-56
2022/06/18 04:49:47;;;;;;;12.40;3.55;;;;;;;;;;5137283;27;20043;-55
2022/06/18 04:52:13;;;;;;;11.07;3.95;;;;;;;;;;5139015;27;20133;-55
2022/06/18 04:54:38;;;;;;;6.80;4.00;;;;;;;;;;5138413;27;20488;-55
2022/06/18 04:57:04;;;;;;;7.65;4.22;;;;;;;;;;5139289;27;20330;-55
2022/06/18 04:59:29;;;;;;;7.65;3.65;;;;;;;;;;5142260;27;20038;-55
2022/06/18 05:02:02;;;;;;;12.32;3.42;;;;;;;;;;5138473;27;20049;-55
2022/06/18 05:04:28;;;;;;;11.63;3.55;;;;;;;;;;5138198;27;20055;-54
2022/06/18 05:06:53;;;;;;;14.65;3.42;;;;;;;;;;5140724;27;20084;-54
2022/06/18 05:09:19;;;;;;;7.68;2.47;;;;;;;;;;5140991;27;20370;-56
2022/06/18 05:11:44;;;;;;;11.30;4.55;;;;;;;;;;5139632;27;20119;-53
2022/06/18 05:14:09;;;;;;;10.88;3.83;;;;;;;;;;5139285;27;20086;-55
2022/06/18 05:16:35;;;;;;;13.85;3.83;;;;;;;;;;5140399;27;20051;-55
2022/06/18 05:19:00;;;;;;;6.03;3.80;;;;;;;;;;5140165;27;20038;-55
2022/06/18 05:21:25;;;;;;;34.15;6.28;;;;;;;;;;5136952;27;20053;-56
2022/06/18 05:23:51;;;;;;;9.55;4.50;;;;;;;;;;5137931;27;20177;-55
2022/06/18 05:26:16;;;;;;;7.75;3.17;;;;;;;;;;5139447;27;20568;-55
2022/06/18 05:28:41;;;;;;;5.35;3.83;;;;;;;;;;5141040;27;20046;-55
2022/06/18 05:31:07;;;;;;;8.57;4.05;;;;;;;;;;5138574;27;20046;-55
2022/06/18 05:33:32;;;;;;;7.15;3.35;;;;;;;;;;5137165;27;20050;-54
2022/06/18 05:35:57;;;;;;;5.70;4.10;;;;;;;;;;5138071;27;20130;-56
2022/06/18 05:38:24;;;;;;;13.77;4.72;;;;;;;;;;5137163;27;20047;-56
2022/06/18 05:40:49;;;;;;;20.90;4.28;;;;;;;;;;5141407;27;20055;-55
2022/06/18 05:43:15;;;;;;;8.32;4.47;;;;;;;;;;5137737;27;20039;-54
2022/06/18 05:45:41;;;;;;;14.70;4.35;;;;;;;;;;5140375;27;20069;-56
2022/06/18 05:48:06;;;;;;;8.27;5.30;;;;;;;;;;5136005;27;20522;-54
2022/06/18 05:50:31;;;;;;;18.92;4.80;;;;;;;;;;5142227;27;20617;-56
2022/06/18 05:52:57;;;;;;;6.30;4.35;;;;;;;;;;5133947;27;20452;-56
2022/06/18 05:55:22;;;;;;;35.40;5.07;;;;;;;;;;5138741;27;20532;-57
2022/06/18 05:57:50;;;;;;;18.70;6.20;;;;;;;;;;5138300;27;20086;-56
2022/06/18 06:00:17;;;;;;;10.52;3.97;;;;;;;;;;5132926;27;20054;-56
2022/06/18 06:02:42;;;;;;;9.25;5.15;;;;;;;;;;5134718;27;20055;-56
2022/06/18 06:05:08;;;;;;;20.73;5.50;;;;;;;;;;5134141;27;20427;-55
2022/06/18 06:07:33;;;;;;;10.57;4.25;;;;;;;;;;5135639;27;20051;-56
2022/06/18 06:12:42;;;;;;;19.33;5.90;;;;;;;;;;5134297;27;20629;-56
2022/06/18 06:15:08;;;;;;;13.35;4.38;;;;;;;;;;5138187;27;20050;-56
2022/06/18 06:17:34;;;;;;;22.73;6.05;;;;;;;;;;5134531;27;20050;-56
2022/06/18 06:20:00;;;;;;;21.52;3.92;;;;;;;;;;5130445;27;20517;-55
2022/06/18 06:22:26;;;;;;;14.60;5.30;;;;;;;;;;5134813;27;20771;-56
2022/06/18 06:24:52;;;;;;;7.10;3.70;;;;;;;;;;5134906;27;20119;-55
2022/06/18 06:27:17;;;;;;;11.15;3.95;;;;;;;;;;5135692;27;20663;-55
2022/06/18 06:29:42;;;;;;;12.77;4.18;;;;;;;;;;5134353;27;20254;-56
2022/06/18 06:32:08;;;;;;;17.98;5.40;;;;;;;;;;5136101;27;20043;-56
2022/06/18 06:34:33;;;;;;;9.05;4.85;;;;;;;;;;5134856;27;20542;-55
2022/06/18 06:36:58;;;;;;;15.43;3.92;;;;;;;;;;5132305;27;20096;-53
2022/06/18 06:39:24;;;;;;;7.55;4.88;;;;;;;;;;5134041;27;20193;-51
2022/06/18 06:41:49;;;;;;;8.93;7.03;;;;;;;;;;5132858;27;20047;-53
2022/06/18 06:44:14;;;;;;;15.00;7.88;;;;;;;;;;5138320;27;20054;-52
2022/06/18 06:46:40;;;;;;;13.02;5.72;;;;;;;;;;5139701;27;20054;-47
2022/06/18 06:49:05;;;;;;;14.45;7.15;;;;;;;;;;5139023;27;20054;-52
2022/06/18 06:51:32;;;;;;;14.93;7.55;;;;;;;;;;5141366;27;20035;-51
2022/06/18 06:53:57;;;;;;;12.48;4.88;;;;;;;;;;5133994;27;20042;-54
2022/06/18 06:59:07;;;;;;;11.27;5.95;;;;;;;;;;5140038;27;20115;-47
2022/06/18 07:01:36;;;;;;;21.40;6.10;;;;;;;;;;5140647;27;20035;-47
2022/06/18 07:04:02;;;;;;;16.83;5.45;;;;;;;;;;5141892;27;20067;-52
2022/06/18 07:06:27;;;;;;;22.65;7.10;;;;;;;;;;5134572;27;20279;-56
2022/06/18 07:08:54;;;;;;;13.70;7.93;;;;;;;;;;5135772;27;20560;-43
2022/06/18 07:11:19;;;;;;;185.68;30.48;;;;;;;;;;5142517;27;20049;-44
2022/06/18 07:13:44;;;;;;;16.40;6.90;;;;;;;;;;5141110;27;20038;-45
2022/06/18 07:16:10;;;;;;;14.32;6.28;;;;;;;;;;5139666;27;20035;-57
2022/06/18 07:18:36;;;;;;;8.23;5.57;;;;;;;;;;5135961;27;20182;-58
2022/06/18 07:21:03;;;;;;;19.60;9.57;;;;;;;;;;5142909;27;20176;-57
2022/06/18 07:23:28;;;;;;;24.20;9.57;;;;;;;;;;5141798;27;20039;-57
2022/06/18 07:25:54;;;;;;;11.25;6.20;;;;;;;;;;5135075;27;20042;-57
2022/06/18 07:28:20;;;;;;;13.07;7.60;;;;;;;;;;5136609;27;20041;-57
2022/06/18 07:30:48;;;;;;;21.23;5.97;;;;;;;;;;5139335;27;20092;-57
2022/06/18 07:33:14;;;;;;;5.57;4.55;;;;;;;;;;5139781;27;20042;-57
2022/06/18 07:35:40;;;;;;;18.48;5.93;;;;;;;;;;5142102;27;20031;-57
2022/06/18 07:38:05;;;;;;;15.48;5.70;;;;;;;;;;5143454;27;20039;-57
2022/06/18 07:40:33;;;;;;;20.75;7.28;;;;;;;;;;5140598;27;20237;-57
2022/06/18 07:42:59;;;;;;;13.43;6.00;;;;;;;;;;5139609;27;20039;-57
2022/06/18 07:45:25;;;;;;;15.23;9.50;;;;;;;;;;5139603;27;20042;-57
2022/06/18 07:47:51;;;;;;;14.95;13.45;;;;;;;;;;5136350;27;20118;-57
2022/06/18 07:50:17;;;;;;;23.13;16.23;;;;;;;;;;5137024;27;20564;-57
2022/06/18 07:52:44;;;;;;;15.38;13.43;;;;;;;;;;5138690;27;20137;-57
2022/06/18 07:55:15;;;;;;;8.20;6.90;;;;;;;;;;5142335;27;20050;-57
2022/06/18 07:57:42;;;;;;;;;;;;;;;;;;5141419;27;20049;-57
2022/06/18 08:00:08;;;;;;;14.13;5.57;;;;;;;;;;5139985;27;19923;-57
2022/06/18 08:02:39;;;;;;;9.30;5.53;;;;;;;;;;5122229;27;20047;-57
2022/06/18 08:05:04;;;;;;;8.45;6.65;;;;;;;;;;5141171;27;20055;-57
2022/06/18 08:07:30;;;;;;;12.60;6.25;;;;;;;;;;5142099;27;20066;-57
2022/06/18 08:09:55;;;;;;;17.13;3.58;;;;;;;;;;5141265;27;20042;-57
2022/06/18 08:12:21;;;;;;;4.95;3.20;;;;;;;;;;5142320;27;20590;-57
2022/06/18 08:14:48;;;;;;;16.17;4.88;;;;;;;;;;5141925;27;20070;-57
2022/06/18 08:17:13;;;;;;;3.45;2.35;;;;;;;;;;5141906;27;20059;-58
2022/06/18 08:19:39;;;;;;;11.45;4.63;;;;;;;;;;5139958;27;20563;-57
2022/06/18 08:22:04;;;;;;;6.13;3.08;;;;;;;;;;5141134;27;20571;-57
2022/06/18 08:24:30;;;;;;;6.40;2.42;;;;;;;;;;5141145;27;20047;-58
2022/06/18 08:26:56;;;;;;;61.97;55.55;;;;;;;;;;5143005;27;20053;-56
2022/06/18 08:29:23;;;;;;;12.35;7.95;;;;;;;;;;5140413;27;20043;-51
2022/06/18 08:31:49;;;;;;;20.85;5.30;;;;;;;;;;5141188;27;20087;-56
2022/06/18 08:34:14;;;;;;;4.10;2.90;;;;;;;;;;5140291;27;20395;-56
2022/06/18 08:36:40;;;;;;;4.60;2.33;;;;;;;;;;5139338;27;20447;-57
2022/06/18 08:39:05;;;;;;;4.57;3.03;;;;;;;;;;5138972;27;20632;-57
2022/06/18 08:41:33;;;;;;;9.00;2.63;;;;;;;;;;5137588;27;20459;-56
2022/06/18 08:44:01;;;;;;;9.32;2.55;;;;;;;;;;5139780;27;20051;-56
2022/06/18 08:46:38;;;;;;;15.25;2.80;;;;;;;;;;5141460;27;20034;-56
2022/06/18 08:49:22;;;;;;;11.95;3.70;;;;;;;;;;5139476;27;20047;-56
2022/06/18 08:52:06;;;;;;;3.88;1.95;;;;;;;;;;5140939;27;20073;-56
2022/06/18 08:54:40;;;;;;;15.88;3.63;;;;;;;;;;5139289;27;20118;-55
2022/06/18 08:57:09;;;;;;;8.32;2.42;;;;;;;;;;5140934;27;20470;-56
2022/06/18 08:59:57;;;;;;;3.00;1.50;;;;;;;;;;5139678;27;20496;-56
2022/06/18 09:02:27;;;;;;;7.47;3.35;;;;;;;;;;5137397;27;20270;-56
2022/06/18 09:04:52;;;;;;;;;;;;;;;;;;5136923;27;20087;-56
2022/06/18 09:07:27;;;;;;;3.30;1.60;;;;;;;;;;5140326;27;19919;-56
2022/06/18 09:10:08;;;;;;;4.88;2.35;;;;;;;;;;5136292;27;20058;-55
2022/06/18 09:12:49;;;;;;;5.85;1.13;;;;;;;;;;5139182;27;20103;-56
2022/06/18 09:15:18;;;;;;;6.05;1.63;;;;;;;;;;5142844;27;20047;-57
2022/06/18 09:18:04;;;;;;;3.22;1.58;;;;;;;;;;5139254;27;20147;-56
2022/06/18 09:20:35;;;;;;;6.30;2.60;;;;;;;;;;5139046;27;20040;-55
2022/06/18 09:23:04;;;;;;;8.32;2.67;;;;;;;;;;5139712;27;20066;-56
2022/06/18 09:25:33;;;;;;;5.65;1.85;;;;;;;;;;5136110;27;20043;-56
2022/06/18 09:28:03;;;;;;;2.55;1.50;;;;;;;;;;5139926;27;20039;-56
2022/06/18 09:30:32;;;;;;;8.00;1.95;;;;;;;;;;5137042;27;20046;-55
2022/06/18 09:33:02;;;;;;;5.85;2.58;;;;;;;;;;5136046;27;20043;-56
2022/06/18 09:35:35;;;;;;;4.47;2.30;;;;;;;;;;5136582;27;20039;-55
2022/06/18 09:38:16;;;;;;;4.55;2.70;;;;;;;;;;5138865;27;20043;-56
2022/06/18 09:40:52;;;;;;;10.18;2.17;;;;;;;;;;5136898;27;20038;-56
2022/06/18 09:43:37;;;;;;;4.20;2.03;;;;;;;;;;5140379;27;20048;-56
2022/06/18 09:46:05;;;;;;;9.60;2.40;;;;;;;;;;5141021;27;20121;-55
2022/06/18 09:48:31;;;;;;;6.38;1.92;;;;;;;;;;5142052;27;20045;-57
2022/06/18 09:50:58;;;;;;;2.03;1.35;;;;;;;;;;5140590;27;20043;-57
2022/06/18 09:53:34;;;;;;;7.45;1.70;;;;;;;;;;5139204;27;20046;-57
2022/06/18 09:56:02;;;;;;;4.15;2.17;;;;;;;;;;5135675;27;20517;-57
2022/06/18 09:58:30;;;;;;;1.95;1.55;;;;;;;;;;5136900;27;20038;-57
2022/06/18 10:00:57;;;;;;;2.33;1.25;;;;;;;;;;5138272;27;20126;-56
2022/06/18 10:08:54;;;;;;;4.75;1.50;;;;;;;;;;5140105;27;20540;-57
2022/06/18 10:11:20;;;;;;;6.70;1.90;;;;;;;;;;5135161;27;20035;-60
2022/06/18 10:13:50;;;;;;;3.10;1.75;;;;;;;;;;5138384;27;20477;-60
2022/06/18 10:16:33;;;;;;;6.63;1.55;;;;;;;;;;5143262;27;20692;-60
2022/06/18 10:18:59;;;;;;;2.25;1.23;;;;;;;;;;5144087;27;20051;-60
2022/06/18 10:21:46;;;;;;;3.35;1.58;;;;;;;;;;5136072;27;20653;-60
2022/06/18 10:24:17;;;;;;;3.60;2.20;;;;;;;;;;5134435;27;20419;-60
2022/06/18 10:27:00;;;;;;;4.63;2.13;;;;;;;;;;5116535;27;20032;-60
2022/06/18 10:29:34;;;;;;;2.55;1.83;;;;;;;;;;5140443;27;20043;-59
2022/06/18 10:32:09;;;;;;;1.77;1.02;;;;;;;;;;5141208;27;20043;-59
2022/06/18 10:34:41;;;;;;;3.47;2.15;;;;;;;;;;5138369;27;20054;-59
2022/06/18 10:37:24;;;;;;;2.15;1.50;;;;;;;;;;5137596;27;20096;-58
2022/06/18 10:40:10;;;;;;;2.28;1.50;;;;;;;;;;5142430;27;20078;-60
2022/06/18 10:42:50;;;;;;;11.23;1.83;;;;;;;;;;5102230;27;20077;-59
2022/06/18 10:45:21;;;;;;;3.47;1.48;;;;;;;;;;5138668;27;20115;-59
2022/06/18 10:47:48;;;;;;;5.00;1.55;;;;;;;;;;5141944;27;20119;-59
2022/06/18 10:50:16;;;;;;;9.18;3.08;;;;;;;;;;5143033;27;20094;-59
2022/06/18 10:52:42;;;;;;;5.47;1.90;;;;;;;;;;5141681;27;20050;-59
2022/06/18 10:55:27;;;;;;;4.80;2.05;;;;;;;;;;5142476;27;20729;-59
2022/06/18 10:57:53;;;;;;;6.22;3.03;;;;;;;;;;5118408;27;20103;-57
2022/06/18 11:00:23;;;;;;;5.13;2.75;;;;;;;;;;5141143;27;20059;-59
2022/06/18 11:02:48;;;;;;;7.78;2.33;;;;;;;;;;5139756;27;20532;-59
2022/06/18 11:05:17;;;;;;;3.92;1.48;;;;;;;;;;5139884;27;20050;-59
2022/06/18 11:07:45;;;;;;;3.25;2.30;;;;;;;;;;5141437;27;20180;-59
2022/06/18 11:10:36;;;;;;;3.53;2.70;;;;;;;;;;5137395;27;20046;-59
2022/06/18 11:13:03;;;;;;;5.68;2.33;;;;;;;;;;5140254;27;20031;-59
2022/06/18 11:15:33;;;;;;;6.65;5.90;;;;;;;;;;5146028;27;20047;-54
2022/06/18 11:18:01;;;;;;;4.93;2.45;;;;;;;;;;5138191;27;20513;-51
2022/06/18 11:20:28;;;;;;;4.43;1.77;;;;;;;;;;5143098;27;20219;-54
2022/06/18 11:22:56;;;;;;;10.40;2.75;;;;;;;;;;5141505;27;20042;-53
2022/06/18 11:25:31;;;;;;;4.82;2.53;;;;;;;;;;5141658;27;20062;-59
2022/06/18 11:27:58;;;;;;;8.25;2.30;;;;;;;;;;5140406;27;20050;-59
2022/06/18 11:30:34;;;;;;;5.65;3.25;;;;;;;;;;5138583;27;20042;-59
2022/06/18 11:33:00;;;;;;;5.07;3.10;;;;;;;;;;5140391;27;20039;-59
2022/06/18 11:35:30;;;;;;;4.43;2.55;;;;;;;;;;5140007;27;20058;-58
2022/06/18 11:38:06;;;;;;;6.10;3.28;;;;;;;;;;5137229;27;20054;-57
2022/06/18 11:40:31;;;;;;;2.47;1.80;;;;;;;;;;5143981;27;20054;-57
2022/06/18 11:42:59;;;;;;;3.47;2.35;;;;;;;;;;5140109;27;20039;-57
2022/06/18 11:45:34;;;;;;;3.13;2.45;;;;;;;;;;5141963;27;20078;-58
2022/06/18 11:48:21;;;;;;;3.53;1.17;;;;;;;;;;5140948;27;20704;-57
2022/06/18 11:50:52;;;;;;;4.43;2.17;;;;;;;;;;5139519;27;20494;-57
2022/06/18 11:53:27;;;;;;;4.63;2.47;;;;;;;;;;5142675;27;20390;-57
2022/06/18 11:55:55;;;;;;;19.73;3.30;;;;;;;;;;5140726;27;20035;-57
2022/06/18 11:58:27;;;;;;;12.60;2.38;;;;;;;;;;5141619;27;20158;-57
2022/06/18 12:01:04;;;;;;;5.07;2.88;;;;;;;;;;5143701;27;20611;-55
2022/06/18 12:03:38;;;;;;;7.28;3.85;;;;;;;;;;5141080;27;20088;-45
2022/06/18 12:06:11;;;;;;;3.15;2.45;;;;;;;;;;5141884;27;20035;-45
2022/06/18 12:08:36;;;;;;;4.05;2.17;;;;;;;;;;5142055;27;20035;-45
2022/06/18 12:11:03;;;;;;;8.60;2.10;;;;;;;;;;5137778;27;20042;-43
2022/06/18 12:13:35;;;;;;;3.08;1.77;;;;;;;;;;5140122;27;20043;-44
2022/06/18 12:16:12;;;;;;;2.65;1.52;;;;;;;;;;5136823;27;20046;-48
2022/06/18 12:18:45;;;;;;;5.32;2.97;;;;;;;;;;5140235;27;20034;-48
2022/06/18 12:21:14;;;;;;;4.55;1.90;;;;;;;;;;5140704;27;20108;-48
2022/06/18 12:23:59;;;;;;;2.55;1.85;;;;;;;;;;5140857;27;20142;-45
2022/06/18 12:26:37;;;;;;;2.67;1.95;;;;;;;;;;5139560;27;20085;-50
2022/06/18 12:29:20;;;;;;;6.07;1.90;;;;;;;;;;5141085;27;20130;-50
2022/06/18 12:31:51;;;;;;;2.40;1.27;;;;;;;;;;5141697;27;20062;-48
2022/06/18 12:34:19;;;;;;;2.58;1.50;;;;;;;;;;5144360;27;20095;-44
2022/06/18 12:36:56;;;;;;;1.60;1.30;;;;;;;;;;5136346;27;20091;-44
2022/06/18 12:39:23;;;;;;;5.15;2.40;;;;;;;;;;5132934;27;20043;-43
2022/06/18 12:42:15;;;;;;;3.20;1.50;;;;;;;;;;5141529;27;20171;-45
2022/06/18 12:44:40;;;;;;;4.45;1.92;;;;;;;;;;5119333;27;20051;-46
2022/06/18 12:47:19;;;;;;;3.13;2.00;;;;;;;;;;5138389;27;20106;-46
2022/06/18 12:50:03;;;;;;;6.97;2.42;;;;;;;;;;5139045;27;20041;-49
2022/06/18 12:52:46;;;;;;;6.50;2.30;;;;;;;;;;5136702;27;20494;-44
2022/06/18 12:55:24;;;;;;;7.10;2.33;;;;;;;;;;5134068;27;20039;-49
2022/06/18 12:57:55;;;;;;;4.85;2.92;;;;;;;;;;5138237;27;20075;-45
2022/06/18 13:00:25;;;;;;;2.70;1.40;;;;;;;;;;5138253;27;20039;-46
2022/06/18 13:03:09;;;;;;;2.65;1.55;;;;;;;;;;5142402;27;20135;-43
2022/06/18 13:05:46;;;;;;;1.83;1.45;;;;;;;;;;5142763;27;20047;-48
2022/06/18 13:08:14;;;;;;;12.43;2.35;;;;;;;;;;5140806;27;20039;-43
2022/06/18 13:10:39;;;;;;;4.30;2.60;;;;;;;;;;5141665;27;20035;-45
2022/06/18 13:13:14;;;;;;;6.38;2.22;;;;;;;;;;5143437;27;20363;-44
2022/06/18 13:15:49;;;;;;;4.45;3.17;;;;;;;;;;5139961;27;20142;-46
2022/06/18 13:18:18;;;;;;;2.67;1.83;;;;;;;;;;5139752;27;20041;-49
2022/06/18 13:20:45;;;;;;;4.60;2.17;;;;;;;;;;5140793;27;20030;-44
2022/06/18 13:28:48;;;;;;;4.95;3.05;;;;;;;;;;5139420;27;20599;-44
2022/06/18 13:31:19;;;;;;;5.25;3.28;;;;;;;;;;5138832;27;20081;-49
2022/06/18 13:33:51;;;;;;;9.27;3.72;;;;;;;;;;5137261;27;20153;-42
2022/06/18 13:36:40;;;;;;;5.07;3.45;;;;;;;;;;5138904;27;20046;-48
2022/06/18 13:39:15;;;;;;;7.00;3.50;;;;;;;;;;5141458;27;20532;-46
2022/06/18 13:41:45;;;;;;;5.82;2.78;;;;;;;;;;5137898;27;20034;-51
2022/06/18 13:44:13;;;;;;;8.15;3.72;;;;;;;;;;5140343;27;20055;-51
2022/06/18 13:46:44;;;;;;;8.32;4.05;;;;;;;;;;5138045;27;20442;-45
2022/06/18 13:49:21;;;;;;;6.75;3.70;;;;;;;;;;5139528;27;20046;-47
2022/06/18 13:52:01;;;;;;;8.85;3.47;;;;;;;;;;5141536;27;20046;-45
2022/06/18 13:54:38;;;;;;;4.82;2.63;;;;;;;;;;5139031;27;20129;-47
2022/06/18 13:57:04;;;;;;;4.10;2.78;;;;;;;;;;5137135;27;20035;-45
2022/06/18 13:59:32;;;;;;;17.60;5.15;;;;;;;;;;5139536;27;20150;-46
2022/06/18 14:02:17;;;;;;;7.80;2.80;;;;;;;;;;5143234;27;20070;-44
2022/06/18 14:04:42;;;;;;;17.58;3.45;;;;;;;;;;5129698;27;20043;-46
2022/06/18 14:07:12;;;;;;;3.95;3.15;;;;;;;;;;5138988;27;20035;-47
2022/06/18 14:09:46;;;;;;;4.72;3.15;;;;;;;;;;5137714;27;20036;-43
2022/06/18 14:12:15;;;;;;;4.97;3.15;;;;;;;;;;5136355;27;20448;-45
2022/06/18 14:14:41;;;;;;;5.75;4.00;;;;;;;;;;5136729;27;20085;-45
2022/06/18 14:17:09;;;;;;;9.07;3.47;;;;;;;;;;5136451;27;20130;-45
2022/06/18 14:19:39;;;;;;;5.38;2.70;;;;;;;;;;5138468;27;20112;-45
2022/06/18 14:22:21;;;;;;;4.18;2.72;;;;;;;;;;5137978;27;20055;-43
2022/06/18 14:24:47;;;;;;;7.78;3.35;;;;;;;;;;5136407;27;20046;-43
2022/06/18 14:27:22;;;;;;;3.30;2.75;;;;;;;;;;5135436;27;20048;-43
2022/06/18 14:29:48;;;;;;;7.18;3.72;;;;;;;;;;5136585;27;20039;-44
2022/06/18 14:32:17;;;;;;;4.45;3.00;;;;;;;;;;5137418;27;20103;-42
2022/06/18 14:34:53;;;;;;;13.70;2.38;;;;;;;;;;5120951;27;20042;-46
2022/06/18 14:37:19;;;;;;;4.82;2.85;;;;;;;;;;5137603;27;20050;-45
2022/06/18 14:39:44;;;;;;;8.82;2.67;;;;;;;;;;5135703;27;20039;-46
2022/06/18 14:42:09;;;;;;;6.95;3.28;;;;;;;;;;5134750;27;20109;-43
2022/06/18 14:44:44;;;;;;;5.18;2.35;;;;;;;;;;5136306;27;20043;-43
2022/06/18 14:47:24;;;;;;;2.83;2.25;;;;;;;;;;5138804;27;20165;-43
2022/06/18 14:49:49;;;;;;;;;;;;;;;;;;5135501;27;20513;-44
2022/06/18 14:52:14;;;;;;;8.40;4.53;;;;;;;;;;5137929;27;20035;-43
2022/06/18 14:54:46;;;;;;;3.67;2.40;;;;;;;;;;5139550;27;20050;-50
2022/06/18 14:57:28;;;;;;;5.80;2.58;;;;;;;;;;5138670;27;20096;-47
2022/06/18 14:59:57;;;;;;;7.70;4.00;;;;;;;;;;5138803;27;20035;-44
2022/06/18 15:02:35;;;;;;;6.57;3.30;;;;;;;;;;5140399;27;20038;-48
2022/06/18 15:05:01;;;;;;;5.13;2.53;;;;;;;;;;5141839;27;20042;-49
2022/06/18 15:07:30;;;;;;;4.40;1.95;;;;;;;;;;5141899;27;20099;-44
2022/06/18 15:10:01;;;;;;;4.68;2.90;;;;;;;;;;5142068;27;20146;-46
2022/06/18 15:12:27;;;;;;;4.10;2.22;;;;;;;;;;5144852;27;20082;-44
2022/06/18 15:14:57;;;;;;;6.22;2.65;;;;;;;;;;5141443;27;20639;-46